Armorel, Arkansas
Current Conditions -  °F | °C
As of 2:28 PM on Thursday 27 Nov 2014 (Local Time) from KHKA Reporting Station
Overcast Overcast  
Wind Chill: 50°   Ceiling: 3500
Heat Index: 50°   Visibility: 10mi
Dew Point: 30°   Wind: 0mph
Humidity: 46%   Direction: NA
Pressure: 30.48"   Gusts: NA
Location:  35.92°N, 89.8°W
Report Text: KHKA 272028Z AUTO 00000KT 10SM SCT028 OVC035 10/M01 A3048 RMK AO2 T01001011
Loading
Personal Weather Stations






























Interactive Weather Map New forecast layout! Learn more

10-Day Weather Forecast

Advertisements
Track Severe Weather on mobile